createdAt,value
2022-08-02T00:01:22.074Z,97366.81
2022-08-02T00:03:50.335Z,97373.22
2022-08-02T00:06:19.877Z,97369.66
2022-08-02T00:08:47.999Z,97363.28
2022-08-02T00:11:16.158Z,97349.78
2022-08-02T00:13:44.248Z,97320.88
2022-08-02T00:16:12.348Z,97318.19
2022-08-02T00:18:45.224Z,97303.84
2022-08-02T00:21:13.317Z,97306.53
2022-08-02T00:24:04.950Z,97322.75
2022-08-02T00:26:32.004Z,97337.97
2022-08-02T00:29:00.092Z,97322.75
2022-08-02T00:31:28.321Z,97330.84
2022-08-02T00:34:05.167Z,97329.84
2022-08-02T00:36:44.556Z,97330.84
2022-08-02T00:39:34.797Z,97334.41
2022-08-02T00:42:02.199Z,97330.84
2022-08-02T00:44:30.286Z,97326.28
2022-08-02T00:46:58.424Z,97317.34
2022-08-02T00:49:26.644Z,97322.75
2022-08-02T00:51:54.920Z,97326.41
2022-08-02T00:54:24.433Z,97330.00
2022-08-02T00:56:52.535Z,97336.34
2022-08-02T00:59:20.635Z,97329.25
2022-08-02T01:01:56.261Z,97335.53
2022-08-02T01:04:30.032Z,97326.56
2022-08-02T01:06:59.986Z,97319.41
2022-08-02T01:09:29.541Z,97317.59
2022-08-02T01:11:57.736Z,97315.88
2022-08-02T01:14:31.047Z,97307.78
2022-08-02T01:17:03.112Z,97311.31
2022-08-02T01:19:38.080Z,97309.59
2022-08-02T01:22:59.871Z,97306.91
2022-08-02T01:25:46.134Z,97307.03
2022-08-02T01:28:27.824Z,97303.47
2022-08-02T01:30:58.409Z,97303.47
2022-08-02T01:33:27.848Z,97299.03
2022-08-02T01:35:56.450Z,97295.50
2022-08-02T01:38:27.159Z,97299.03
2022-08-02T01:40:55.293Z,97297.34
2022-08-02T01:43:24.757Z,97302.72
2022-08-02T01:45:52.929Z,97301.88
2022-08-02T01:48:21.050Z,97294.75
2022-08-02T01:50:49.177Z,97297.47
2022-08-02T01:53:18.393Z,97299.28
2022-08-02T01:55:56.803Z,97294.81
2022-08-02T01:58:29.299Z,97302.00
2022-08-02T02:00:58.824Z,97302.09
2022-08-02T02:03:27.058Z,97298.53
2022-08-02T02:05:57.157Z,97300.34
2022-08-02T02:08:27.405Z,97302.19
2022-08-02T02:10:56.129Z,97309.47
2022-08-02T02:13:33.392Z,97316.69
2022-08-02T02:16:04.418Z,97314.88
2022-08-02T02:18:32.536Z,97318.53
2022-08-02T02:21:00.621Z,97317.56
2022-08-02T02:23:32.134Z,97319.41
2022-08-02T02:26:04.280Z,97321.22
2022-08-02T02:28:32.660Z,97308.72
2022-08-02T02:31:06.305Z,97312.25
2022-08-02T02:33:35.260Z,97308.72
2022-08-02T02:36:03.271Z,97312.25
2022-08-02T02:38:32.923Z,97314.22
2022-08-02T02:41:02.081Z,97305.28
2022-08-02T02:43:30.570Z,97307.97
2022-08-02T02:45:58.676Z,97307.97
2022-08-02T02:48:28.176Z,97308.94
2022-08-02T02:50:56.477Z,97298.16
2022-08-02T02:53:24.683Z,97306.25
2022-08-02T02:56:01.403Z,97300.84
2022-08-02T02:58:31.281Z,97295.44
2022-08-02T03:01:16.867Z,97282.94
2022-08-02T03:03:46.712Z,97288.34
2022-08-02T03:06:15.838Z,97291.16
2022-08-02T03:08:44.405Z,97276.69
2022-08-02T03:11:12.718Z,97274.09
2022-08-02T03:13:40.848Z,97279.50
2022-08-02T03:16:08.992Z,97270.53
2022-08-02T03:18:38.072Z,97272.38
2022-08-02T03:21:08.141Z,97272.38
2022-08-02T03:23:36.590Z,97272.38
2022-08-02T03:26:04.837Z,97266.97
2022-08-02T03:28:32.920Z,97273.25
2022-08-02T03:31:01.445Z,97270.66
2022-08-02T03:33:29.624Z,97276.91
2022-08-02T03:35:59.837Z,97276.91
2022-08-02T03:38:31.004Z,97273.38
2022-08-02T03:40:59.104Z,97272.50
2022-08-02T03:43:28.882Z,97271.63
2022-08-02T03:45:57.072Z,97269.94
2022-08-02T03:48:33.944Z,97276.16
2022-08-02T03:51:03.285Z,97278.03
2022-08-02T03:53:32.766Z,97279.88
2022-08-02T03:56:00.904Z,97280.72
2022-08-02T03:58:29.080Z,97279.00
2022-08-02T04:00:58.068Z,97287.97
2022-08-02T04:03:26.228Z,97295.19
2022-08-02T04:06:03.258Z,97291.63
2022-08-02T04:08:38.018Z,97288.94
2022-08-02T04:11:24.723Z,97290.81
2022-08-02T04:13:54.715Z,97294.47
2022-08-02T04:16:28.351Z,97300.72
2022-08-02T04:18:57.507Z,97300.72
2022-08-02T04:21:26.870Z,97308.84
2022-08-02T04:24:18.632Z,97316.94
2022-08-02T04:26:48.079Z,97317.91
2022-08-02T04:29:18.421Z,97311.53
2022-08-02T04:31:46.507Z,97326.88
2022-08-02T04:34:15.584Z,97323.31
2022-08-02T04:36:44.107Z,97325.16
2022-08-02T04:39:12.357Z,97331.41
2022-08-02T04:41:46.223Z,97329.69
2022-08-02T04:44:14.449Z,97330.56
2022-08-02T04:46:42.628Z,97333.28
2022-08-02T04:49:10.854Z,97335.09
2022-08-02T04:51:39.068Z,97330.66
2022-08-02T04:54:09.859Z,97334.22
2022-08-02T04:56:38.503Z,97336.94
2022-08-02T04:59:08.017Z,97336.94
2022-08-02T05:01:36.428Z,97344.16
2022-08-02T05:04:04.538Z,97334.34
2022-08-02T05:06:32.768Z,97348.72
2022-08-02T05:09:00.859Z,97347.72
2022-08-02T05:11:35.930Z,97347.00
2022-08-02T05:14:05.221Z,97342.47
2022-08-02T05:16:34.772Z,97341.59
2022-08-02T05:19:03.148Z,97347.88
2022-08-02T05:21:31.875Z,97346.03
2022-08-02T05:24:00.210Z,97346.03
2022-08-02T05:26:28.328Z,97341.47
2022-08-02T05:28:56.399Z,97345.03
2022-08-02T05:31:24.484Z,97345.03
2022-08-02T05:33:54.195Z,97347.59
2022-08-02T05:36:22.351Z,97344.91
2022-08-02T05:38:51.162Z,97341.25
2022-08-02T05:41:19.435Z,97339.41
2022-08-02T05:43:47.762Z,97339.16
2022-08-02T05:46:15.878Z,97339.16
2022-08-02T05:48:44.992Z,97333.75
2022-08-02T05:51:23.676Z,97331.03
2022-08-02T05:53:52.718Z,97332.03
2022-08-02T05:56:24.443Z,97328.47
2022-08-02T05:58:55.051Z,97334.84
2022-08-02T06:01:28.277Z,97332.03
2022-08-02T06:03:58.531Z,97327.59
2022-08-02T06:06:28.284Z,97337.53
2022-08-02T06:08:59.716Z,97335.72
2022-08-02T06:11:34.767Z,97339.28
2022-08-02T06:14:03.907Z,97341.84
2022-08-02T06:16:33.000Z,97339.16
2022-08-02T06:19:09.424Z,97334.63
2022-08-02T06:22:33.474Z,97346.28
2022-08-02T06:24:27.096Z,97345.53
2022-08-02T06:26:57.421Z,97352.78
2022-08-02T06:29:25.504Z,97358.31
2022-08-02T06:31:54.430Z,97355.69
2022-08-02T06:34:22.517Z,97357.78
2022-08-02T06:36:53.535Z,97353.25
2022-08-02T06:39:23.920Z,97362.97
2022-08-02T06:41:52.053Z,97356.69
2022-08-02T06:47:17.581Z,97356.69
2022-08-02T06:49:51.595Z,97355.84
2022-08-02T06:52:27.877Z,97357.78
2022-08-02T06:54:57.213Z,97362.31
2022-08-02T06:57:25.273Z,97365.03
2022-08-02T06:59:53.484Z,97357.78
2022-08-02T07:02:21.563Z,97355.09
2022-08-02T07:04:49.740Z,97363.19
2022-08-02T07:07:17.796Z,97358.78
2022-08-02T07:09:56.862Z,97356.09
2022-08-02T07:12:29.471Z,97366.88
2022-08-02T07:14:57.952Z,97356.19
2022-08-02T07:17:26.058Z,97362.59
2022-08-02T07:19:54.220Z,97355.44
2022-08-02T07:22:23.590Z,97360.00
2022-08-02T07:24:53.271Z,97358.16
2022-08-02T07:27:21.547Z,97364.41
2022-08-02T07:29:49.728Z,97368.84
2022-08-02T07:32:18.104Z,97367.84
2022-08-02T07:34:51.147Z,97366.88
2022-08-02T07:37:35.797Z,97373.25
2022-08-02T07:40:14.798Z,97366.03
2022-08-02T07:42:47.769Z,97370.44
2022-08-02T07:45:15.864Z,97371.28
2022-08-02T07:47:44.498Z,97375.72
2022-08-02T07:50:13.024Z,97383.72
2022-08-02T07:52:41.149Z,97379.16
2022-08-02T07:55:11.477Z,97373.78
2022-08-02T07:57:45.456Z,97377.31
2022-08-02T08:00:16.138Z,97371.81
2022-08-02T08:02:44.409Z,97377.22
2022-08-02T08:05:12.631Z,97377.22
2022-08-02T08:07:40.695Z,97376.34
2022-08-02T08:10:09.937Z,97369.22
2022-08-02T08:12:39.416Z,97367.50
2022-08-02T08:15:08.058Z,97368.38
2022-08-02T08:17:36.288Z,97367.38
2022-08-02T08:20:04.785Z,97365.53
2022-08-02T08:22:32.897Z,97362.84
2022-08-02T08:25:01.208Z,97364.53
2022-08-02T08:27:29.319Z,97356.44
2022-08-02T08:29:58.815Z,97368.97
2022-08-02T08:32:27.152Z,97368.13
2022-08-02T08:34:55.252Z,97370.81
2022-08-02T08:37:23.380Z,97366.16
2022-08-02T08:39:57.027Z,97370.69
2022-08-02T08:42:27.507Z,97364.31
2022-08-02T08:44:56.596Z,97370.59
2022-08-02T08:47:27.259Z,97379.53
2022-08-02T08:50:03.328Z,97383.97
2022-08-02T08:52:31.428Z,97383.84
2022-08-02T08:54:59.618Z,97383.97
2022-08-02T08:57:29.635Z,97397.47
2022-08-02T08:59:57.873Z,97385.94
2022-08-02T09:02:28.418Z,97392.06
2022-08-02T09:04:56.894Z,97392.06
2022-08-02T09:07:25.006Z,97398.34
2022-08-02T09:09:53.127Z,97395.50
2022-08-02T09:12:22.453Z,97401.78
2022-08-02T09:14:50.721Z,97406.19
2022-08-02T09:17:21.431Z,97392.69
2022-08-02T09:19:52.863Z,97401.66
2022-08-02T09:22:20.931Z,97397.94
2022-08-02T09:24:50.063Z,97407.78
2022-08-02T09:27:19.013Z,97410.38
2022-08-02T09:30:12.728Z,97420.94
2022-08-02T09:32:45.557Z,97432.53
2022-08-02T09:35:15.402Z,97443.06
2022-08-02T09:37:46.974Z,97442.09
2022-08-02T09:40:16.893Z,97442.94
2022-08-02T09:42:58.869Z,97446.50
2022-08-02T09:45:31.698Z,97449.09
2022-08-02T09:47:59.807Z,97442.84
2022-08-02T09:50:29.308Z,97446.38
2022-08-02T09:52:57.528Z,97447.13
2022-08-02T09:55:26.140Z,97450.69
2022-08-02T09:57:54.217Z,97446.16
2022-08-02T10:00:37.233Z,97456.09
2022-08-02T10:03:14.878Z,97451.56
2022-08-02T10:05:56.144Z,97454.28
2022-08-02T10:08:25.537Z,97464.06
2022-08-02T10:11:00.642Z,97466.78
2022-08-02T10:13:32.754Z,97463.25
2022-08-02T10:16:00.900Z,97475.88
2022-08-02T10:18:43.286Z,97473.31
2022-08-02T10:21:20.351Z,97478.59
2022-08-02T10:23:49.361Z,97476.00
2022-08-02T10:26:18.700Z,97471.44
2022-08-02T10:28:47.909Z,97477.72
2022-08-02T10:31:16.916Z,97469.59
2022-08-02T10:33:48.607Z,97463.34
2022-08-02T10:36:19.764Z,97462.38
2022-08-02T10:38:47.995Z,97452.53
2022-08-02T10:41:16.800Z,97460.53
2022-08-02T10:43:46.564Z,97457.84
2022-08-02T10:46:32.817Z,97460.41
2022-08-02T10:49:38.105Z,97459.53
2022-08-02T10:52:10.997Z,97458.56
2022-08-02T10:54:40.433Z,97455.88
2022-08-02T10:57:16.698Z,97453.19
2022-08-02T10:59:45.040Z,97445.91
2022-08-02T11:02:13.658Z,97445.06
2022-08-02T11:05:04.964Z,97444.06
2022-08-02T11:07:36.745Z,97441.38
2022-08-02T11:10:29.827Z,97437.69
2022-08-02T11:13:02.137Z,97439.41
2022-08-02T11:15:30.445Z,97442.97
2022-08-02T11:17:59.995Z,97437.44
2022-08-02T11:20:28.216Z,97441.16
2022-08-02T11:23:19.936Z,97436.56
2022-08-02T11:26:11.327Z,97435.63
2022-08-02T11:28:38.362Z,97432.91
2022-08-02T11:31:07.391Z,97440.03
2022-08-02T11:33:36.935Z,97441.75
2022-08-02T11:36:07.377Z,97435.47
2022-08-02T11:38:37.170Z,97441.63
2022-08-02T11:41:09.731Z,97431.69
2022-08-02T11:43:38.960Z,97425.19
2022-08-02T11:46:13.132Z,97411.69
2022-08-02T11:48:41.913Z,97417.81
2022-08-02T11:51:13.176Z,97422.00
2022-08-02T11:53:47.343Z,97413.63
2022-08-02T11:56:17.950Z,97412.66
2022-08-02T11:59:03.100Z,97406.53
2022-08-02T12:01:32.258Z,97408.22
2022-08-02T12:04:05.445Z,97400.97
2022-08-02T12:06:33.860Z,97400.97
2022-08-02T12:09:18.015Z,97399.16
2022-08-02T12:11:49.893Z,97398.16
2022-08-02T12:14:18.173Z,97399.16
2022-08-02T12:17:03.465Z,97396.31
2022-08-02T12:19:31.649Z,97397.28
2022-08-02T12:22:10.830Z,97401.84
2022-08-02T12:24:41.249Z,97392.75
2022-08-02T12:27:09.391Z,97396.31
2022-08-02T12:29:57.837Z,97395.31
2022-08-02T12:32:26.945Z,97393.47
2022-08-02T12:35:06.061Z,97391.66
2022-08-02T12:37:34.193Z,97380.84
2022-08-02T12:40:20.890Z,97382.53
2022-08-02T12:42:54.815Z,97384.28
2022-08-02T12:45:22.940Z,97388.81
2022-08-02T12:47:51.980Z,97381.56
2022-08-02T12:50:21.091Z,97378.00
2022-08-02T12:52:49.285Z,97376.16
2022-08-02T12:55:22.657Z,97387.84
2022-08-02T12:57:57.516Z,97392.25
2022-08-02T13:00:26.922Z,97396.69
2022-08-02T13:02:55.057Z,97404.78
2022-08-02T13:05:23.146Z,97401.09
2022-08-02T13:07:51.392Z,97402.84
2022-08-02T13:10:21.000Z,97397.41
2022-08-02T13:12:49.492Z,97407.25
2022-08-02T13:15:48.890Z,97403.56
2022-08-02T13:18:06.268Z,97399.00
2022-08-02T13:20:34.351Z,97391.75
2022-08-02T13:23:04.101Z,97393.50
2022-08-02T13:25:33.887Z,97388.91
2022-08-02T13:28:02.097Z,97387.94
2022-08-02T13:30:30.306Z,97382.69
2022-08-02T13:33:01.152Z,97378.97
2022-08-02T13:35:29.567Z,97372.69
2022-08-02T13:37:57.684Z,97364.50
2022-08-02T13:40:25.911Z,97361.78
2022-08-02T13:42:55.464Z,97359.09
2022-08-02T13:45:23.668Z,97350.09
2022-08-02T13:48:04.454Z,97349.09
2022-08-02T13:50:33.800Z,97350.97
2022-08-02T13:53:01.910Z,97341.00
2022-08-02T13:55:30.005Z,97348.25
2022-08-02T13:57:59.544Z,97349.97
2022-08-02T14:00:34.646Z,97346.28
2022-08-02T14:03:05.898Z,97344.44
2022-08-02T14:05:47.218Z,97347.13
2022-08-02T14:08:17.967Z,97354.28
2022-08-02T14:10:46.842Z,97356.84
2022-08-02T14:13:16.376Z,97353.16
2022-08-02T14:15:44.861Z,97362.13
2022-08-02T14:18:13.908Z,97365.69
2022-08-02T14:20:42.105Z,97364.72
2022-08-02T14:23:10.295Z,97370.00
2022-08-02T14:25:38.702Z,97365.47
2022-08-02T14:28:06.862Z,97369.00
2022-08-02T14:30:36.513Z,97368.03
2022-08-02T14:33:05.128Z,97357.22
2022-08-02T14:35:33.301Z,97362.63
2022-08-02T14:38:01.392Z,97358.06
2022-08-02T14:40:31.658Z,97349.97
2022-08-02T14:43:00.711Z,97349.88
2022-08-02T14:45:36.771Z,97341.75
2022-08-02T14:48:12.444Z,97336.34
2022-08-02T14:50:40.631Z,97348.03
2022-08-02T14:53:12.644Z,97339.91
2022-08-02T14:55:42.545Z,97342.63
2022-08-02T14:58:10.772Z,97339.97
2022-08-02T15:00:41.266Z,97333.63
2022-08-02T15:03:11.828Z,97335.34
2022-08-02T15:05:39.935Z,97341.63
2022-08-02T15:08:08.044Z,97337.06
2022-08-02T15:10:36.142Z,97336.94
2022-08-02T15:13:04.317Z,97332.41
2022-08-02T15:15:32.415Z,97332.41
2022-08-02T15:18:08.697Z,97322.44
2022-08-02T15:20:38.139Z,97319.75
2022-08-02T15:23:09.501Z,97324.88
2022-08-02T15:25:41.513Z,97324.03
2022-08-02T15:28:09.939Z,97314.06
2022-08-02T15:30:38.069Z,97329.31
2022-08-02T15:33:06.428Z,97323.03
2022-08-02T15:35:34.600Z,97319.34
2022-08-02T15:38:04.187Z,97321.06
2022-08-02T15:40:32.367Z,97315.66
2022-08-02T15:43:00.435Z,97318.38
2022-08-02T15:45:28.629Z,97312.97
2022-08-02T15:47:56.688Z,97312.97
2022-08-02T15:50:24.830Z,97315.53
2022-08-02T15:52:52.922Z,97312.09
2022-08-02T15:55:22.511Z,97320.94
2022-08-02T15:57:50.592Z,97318.38
2022-08-02T16:00:19.260Z,97319.25
2022-08-02T16:02:47.930Z,97324.66
2022-08-02T16:05:18.075Z,97321.94
2022-08-02T16:07:46.621Z,97318.38
2022-08-02T16:10:14.852Z,97330.06
2022-08-02T16:12:44.391Z,97332.03
2022-08-02T16:15:13.622Z,97333.72
2022-08-02T16:17:48.739Z,97331.91
2022-08-02T16:20:22.425Z,97331.03
2022-08-02T16:22:50.570Z,97336.44
2022-08-02T16:25:18.913Z,97334.59
2022-08-02T16:28:07.423Z,97341.84
2022-08-02T16:30:36.243Z,97341.84
2022-08-02T16:33:04.356Z,97334.59
2022-08-02T16:35:32.477Z,97340.00
2022-08-02T16:38:00.640Z,97346.28
2022-08-02T16:40:28.743Z,97336.44
2022-08-02T16:42:58.242Z,97336.44
2022-08-02T16:45:28.493Z,97340.88
2022-08-02T16:48:05.487Z,97339.13
2022-08-02T16:50:34.517Z,97336.44
2022-08-02T16:53:07.411Z,97333.72
2022-08-02T16:55:36.255Z,97331.03
2022-08-02T16:58:09.696Z,97339.13
2022-08-02T17:00:38.007Z,97338.28
2022-08-02T17:03:14.512Z,97341.97
2022-08-02T17:05:56.054Z,97346.53
2022-08-02T17:08:31.505Z,97346.66
2022-08-02T17:11:03.182Z,97350.34
2022-08-02T17:13:34.393Z,97339.50
2022-08-02T17:16:20.503Z,97350.47
2022-08-02T17:18:54.589Z,97352.19
2022-08-02T17:21:22.686Z,97353.16
2022-08-02T17:24:04.942Z,97355.88
2022-08-02T17:26:35.079Z,97354.16
2022-08-02T17:29:16.233Z,97354.16
2022-08-02T17:32:05.947Z,97352.31
2022-08-02T17:34:35.150Z,97360.41
2022-08-02T17:37:05.649Z,97354.16
2022-08-02T17:39:43.177Z,97351.56
2022-08-02T17:42:20.165Z,97354.28
2022-08-02T17:44:53.497Z,97352.56
2022-08-02T17:47:22.111Z,97357.97
2022-08-02T17:49:52.590Z,97359.78
2022-08-02T17:52:50.761Z,97358.06
2022-08-02T17:55:10.915Z,97363.47
2022-08-02T17:57:57.417Z,97357.22
2022-08-02T18:03:20.500Z,97365.47
2022-08-02T18:05:55.265Z,97357.44
2022-08-02T18:08:24.156Z,97361.03
2022-08-02T18:10:52.834Z,97363.72
2022-08-02T18:13:21.063Z,97367.44
2022-08-02T18:15:52.422Z,97370.97
2022-08-02T18:18:29.316Z,97372.84
2022-08-02T18:20:58.649Z,97373.81
2022-08-02T18:26:32.798Z,97369.41
2022-08-02T18:29:03.841Z,97375.63
2022-08-02T18:31:39.469Z,97370.22
2022-08-02T18:34:08.091Z,97370.22
2022-08-02T18:36:36.237Z,97364.00
2022-08-02T18:39:16.194Z,97376.50
2022-08-02T18:41:45.164Z,97375.63
2022-08-02T18:44:16.647Z,97384.47
2022-08-02T18:49:46.759Z,97390.03
2022-08-02T18:52:31.146Z,97394.47
2022-08-02T18:54:59.816Z,97393.72
2022-08-02T18:58:01.702Z,97398.25
2022-08-02T19:00:17.211Z,97405.50
2022-08-02T19:02:50.396Z,97409.31
2022-08-02T19:05:21.074Z,97413.97
2022-08-02T19:07:50.759Z,97408.56
2022-08-02T19:10:21.089Z,97409.44
2022-08-02T19:12:51.637Z,97406.88
2022-08-02T19:15:20.048Z,97405.13
2022-08-02T19:17:54.976Z,97409.81
2022-08-02T19:20:27.073Z,97410.69
2022-08-02T19:22:58.111Z,97408.84
2022-08-02T19:25:27.761Z,97419.53
2022-08-02T19:27:56.291Z,97420.53
2022-08-02T19:30:25.735Z,97418.78
2022-08-02T19:32:59.839Z,97416.94
2022-08-02T19:35:34.543Z,97423.31
2022-08-02T19:38:09.958Z,97428.72
2022-08-02T19:40:38.936Z,97429.59
2022-08-02T19:44:27.203Z,97433.16
2022-08-02T19:45:57.551Z,97436.75
2022-08-02T19:48:27.041Z,97437.56
2022-08-02T19:51:01.018Z,97438.44
2022-08-02T19:53:48.251Z,97437.47
2022-08-02T19:56:21.058Z,97439.31
2022-08-02T19:58:51.418Z,97440.19
2022-08-02T20:01:25.407Z,97439.19
2022-08-02T20:04:06.161Z,97443.72
2022-08-02T20:06:36.716Z,97446.44
2022-08-02T20:09:05.044Z,97446.31
2022-08-02T20:11:34.616Z,97441.88
2022-08-02T20:14:04.868Z,97445.47
2022-08-02T20:16:33.344Z,97444.59
2022-08-02T20:19:02.600Z,97446.44
2022-08-02T20:21:35.460Z,97452.84
2022-08-02T20:24:07.219Z,97451.97
2022-08-02T20:26:35.788Z,97449.25
2022-08-02T20:29:06.398Z,97439.53
2022-08-02T20:31:36.275Z,97450.25
2022-08-02T20:34:05.630Z,97443.13
2022-08-02T20:36:35.384Z,97448.53
2022-08-02T20:39:03.533Z,97445.94
2022-08-02T20:41:37.078Z,97442.38
2022-08-02T20:44:15.986Z,97445.09
2022-08-02T20:46:59.010Z,97446.09
2022-08-02T20:49:41.570Z,97450.63
2022-08-02T20:52:23.195Z,97451.59
2022-08-02T20:54:52.829Z,97453.47
2022-08-02T21:00:12.288Z,97450.00
2022-08-02T21:02:40.388Z,97447.31
2022-08-02T21:05:17.219Z,97454.41
2022-08-02T21:07:47.848Z,97450.00
2022-08-02T21:10:24.035Z,97459.97
2022-08-02T21:12:53.685Z,97456.38
2022-08-02T21:15:24.611Z,97457.38
2022-08-02T21:17:58.827Z,97457.38
2022-08-02T21:20:29.971Z,97451.09
2022-08-02T21:22:58.245Z,97469.03
2022-08-02T21:25:42.644Z,97462.78
2022-08-02T21:28:17.359Z,97458.34
2022-08-02T21:30:46.170Z,97462.88
2022-08-02T21:33:18.184Z,97464.75
2022-08-02T21:35:52.321Z,97457.59
2022-08-02T21:38:35.724Z,97462.16
2022-08-02T21:41:06.930Z,97460.44
2022-08-02T21:43:43.840Z,97457.75
2022-08-02T21:46:14.613Z,97462.28
2022-08-02T21:48:42.945Z,97467.69
2022-08-02T21:51:16.007Z,97465.97
2022-08-02T21:54:18.112Z,97465.97
2022-08-02T21:56:32.575Z,97464.25
2022-08-02T21:59:15.563Z,97472.34
2022-08-02T22:01:52.383Z,97457.13
2022-08-02T22:04:21.698Z,97463.50
2022-08-02T22:06:49.953Z,97471.59
2022-08-02T22:09:44.451Z,97471.59
2022-08-02T22:12:10.054Z,97475.31
2022-08-02T22:14:40.124Z,97471.75
2022-08-02T22:17:13.634Z,97470.88
2022-08-02T22:19:53.895Z,97473.69
2022-08-02T22:22:28.464Z,97477.28
2022-08-02T22:24:57.365Z,97475.53
2022-08-02T22:28:34.845Z,97479.09
2022-08-02T22:30:15.419Z,97478.25
2022-08-02T22:32:57.522Z,97476.53
2022-08-02T22:35:25.865Z,97472.97
2022-08-02T22:38:16.631Z,97470.25
2022-08-02T22:40:42.216Z,97472.09
2022-08-02T22:43:10.661Z,97469.38
2022-08-02T22:45:40.263Z,97473.94
2022-08-02T22:48:08.580Z,97473.94
2022-08-02T22:50:36.860Z,97477.63
2022-08-02T22:53:06.639Z,97476.75
2022-08-02T22:55:34.838Z,97474.06
2022-08-02T22:58:09.728Z,97475.88
2022-08-02T22:58:45.466Z,97378.25
2022-08-02T22:58:49.289Z,97360.03
2022-08-02T22:59:07.097Z,97455.28
2022-08-02T22:59:10.149Z,97370.22
2022-08-02T23:00:39.361Z,97468.78
2022-08-02T23:03:07.628Z,97470.59
2022-08-02T23:05:35.880Z,97471.47
2022-08-02T23:08:04.027Z,97467.03
2022-08-02T23:10:32.305Z,97466.19
2022-08-02T23:13:00.491Z,97468.03
2022-08-02T23:15:48.687Z,97478.84
2022-08-02T23:18:35.858Z,97469.00
2022-08-02T23:21:04.009Z,97466.44
2022-08-02T23:23:32.149Z,97473.56
2022-08-02T23:26:00.308Z,97477.09
2022-08-02T23:28:28.380Z,97467.28
2022-08-02T23:30:56.501Z,97466.44
2022-08-02T23:33:25.940Z,97465.56
2022-08-02T23:35:54.072Z,97450.22
2022-08-02T23:38:22.167Z,97461.16
2022-08-02T23:40:50.310Z,97463.84
2022-08-02T23:43:19.077Z,97462.03
2022-08-02T23:45:47.215Z,97460.28
2022-08-02T23:48:15.299Z,97457.59
2022-08-02T23:50:44.777Z,97463.97
2022-08-02T23:53:12.880Z,97463.97
2022-08-02T23:55:41.087Z,97462.25
2022-08-02T23:58:09.268Z,97468.66
